Time;durP1;ratioP1;P1;durP2;ratioP2;P2;SDS_P1;SDS_P2;PMS_P1;PMS_P2;Temp;Humidity;BMP_temperature;BMP_pressure;BME280_temperature;BME280_humidity;BME280_pressure;Samples;Min_cycle;Max_cycle;Signal;HPM_P1;HPM_P2
2021/09/27 00:01:08;;;;;;;1.53;1.40;;;16.60;98.00;;;;;;5092406;28;20518;-68
2021/09/27 00:03:36;;;;;;;2.23;1.87;;;16.70;98.00;;;;;;5092317;28;20930;-68
2021/09/27 00:06:04;;;;;;;1.60;1.47;;;16.70;98.00;;;;;;5092382;28;20509;-70
2021/09/27 00:08:31;;;;;;;2.03;1.93;;;16.60;98.00;;;;;;5092149;28;20999;-68
2021/09/27 00:11:03;;;;;;;1.90;1.70;;;16.60;98.00;;;;;;5092418;28;20456;-67
2021/09/27 00:13:34;;;;;;;2.63;2.37;;;16.60;98.00;;;;;;5092267;28;20524;-67
2021/09/27 00:16:01;;;;;;;2.20;2.00;;;16.70;98.00;;;;;;5092303;28;20451;-68
2021/09/27 00:18:29;;;;;;;1.90;1.80;;;16.60;98.00;;;;;;5092174;28;20530;-68
2021/09/27 00:20:58;;;;;;;3.00;2.03;;;16.40;98.00;;;;;;5092293;28;20515;-68
2021/09/27 00:23:27;;;;;;;3.07;1.93;;;16.40;98.00;;;;;;5091918;28;20492;-69
2021/09/27 00:25:54;;;;;;;2.60;1.67;;;16.40;98.00;;;;;;5092160;28;20452;-68
2021/09/27 00:28:24;;;;;;;2.20;2.10;;;16.40;98.00;;;;;;5092078;28;20804;-69
2021/09/27 00:30:52;;;;;;;2.13;1.80;;;16.50;98.00;;;;;;5092127;28;20479;-68
2021/09/27 00:33:21;;;;;;;2.37;1.90;;;16.40;98.00;;;;;;5091971;28;20855;-70
2021/09/27 00:35:50;;;;;;;2.20;2.00;;;16.40;98.00;;;;;;5092206;28;20474;-68
2021/09/27 00:38:18;;;;;;;3.00;2.17;;;16.40;98.00;;;;;;5092140;28;20452;-69
2021/09/27 00:40:48;;;;;;;1.90;1.70;;;16.30;98.00;;;;;;5090717;28;20900;-69
2021/09/27 00:43:16;;;;;;;1.83;1.60;;;16.30;98.00;;;;;;5092038;28;21015;-70
2021/09/27 00:45:48;;;;;;;2.10;1.83;;;16.10;98.00;;;;;;5091775;28;20501;-70
2021/09/27 00:48:15;;;;;;;2.30;1.80;;;16.10;98.00;;;;;;5091717;28;21070;-68
2021/09/27 00:50:45;;;;;;;2.20;2.00;;;16.00;98.00;;;;;;5090606;28;20506;-68
2021/09/27 00:53:20;;;;;;;2.30;1.97;;;16.10;98.00;;;;;;5091634;28;20451;-67
2021/09/27 00:55:47;;;;;;;1.97;1.60;;;16.10;98.00;;;;;;5091646;28;20528;-69
2021/09/27 00:58:18;;;;;;;2.13;1.97;;;16.00;98.00;;;;;;5091581;28;20521;-68
2021/09/27 01:00:46;;;;;;;1.77;1.40;;;15.90;98.00;;;;;;5091690;28;20480;-68
2021/09/27 01:03:14;;;;;;;2.43;1.63;;;15.90;98.00;;;;;;5091426;28;20950;-69
2021/09/27 01:05:49;;;;;;;1.30;1.20;;;15.90;98.00;;;;;;5091780;28;20452;-68
2021/09/27 01:08:28;;;;;;;2.27;1.73;;;16.00;98.00;;;;;;5090238;28;20906;-69
2021/09/27 01:11:08;;;;;;;1.80;1.80;;;16.00;98.00;;;;;;5091564;28;20517;-69
2021/09/27 01:14:08;;;;;;;1.63;1.53;;;16.00;98.00;;;;;;5091401;28;20478;-70
2021/09/27 01:16:43;;;;;;;2.50;1.77;;;15.90;98.00;;;;;;5091616;28;20946;-70
2021/09/27 01:19:53;;;;;;;3.93;2.00;;;15.90;98.00;;;;;;5091397;28;20463;-68
2021/09/27 01:22:33;;;;;;;1.73;1.70;;;15.80;98.00;;;;;;5071287;28;20524;-69
2021/09/27 01:25:41;;;;;;;1.80;1.50;;;15.90;98.00;;;;;;5091475;28;20528;-68
2021/09/27 01:28:27;;;;;;;1.50;1.30;;;15.90;98.00;;;;;;5091356;28;20554;-68
2021/09/27 01:31:27;;;;;;;2.43;1.87;;;16.00;98.00;;;;;;5091466;28;20447;-68
2021/09/27 01:34:01;;;;;;;1.73;1.40;;;16.00;98.00;;;;;;5048336;28;20454;-69
2021/09/27 01:36:34;;;;;;;1.37;1.30;;;15.80;98.00;;;;;;5083130;28;20519;-68
2021/09/27 01:39:07;;;;;;;1.97;1.60;;;15.70;98.00;;;;;;5090645;28;20492;-69
2021/09/27 01:41:44;;;;;;;2.03;1.63;;;15.60;98.00;;;;;;5091240;28;20519;-68
2021/09/27 01:44:20;;;;;;;1.87;1.87;;;15.80;98.00;;;;;;5091288;28;20457;-67
2021/09/27 01:46:52;;;;;;;1.80;1.50;;;15.70;98.00;;;;;;5091371;28;20865;-68
2021/09/27 01:49:26;;;;;;;1.90;1.53;;;15.70;98.00;;;;;;5091263;28;20481;-70
2021/09/27 01:51:59;;;;;;;2.10;1.93;;;15.70;98.00;;;;;;5092569;28;20491;-69
2021/09/27 01:54:32;;;;;;;2.07;1.50;;;15.70;98.00;;;;;;5094637;28;20524;-68
2021/09/27 01:57:06;;;;;;;1.93;1.43;;;15.60;98.00;;;;;;5095121;28;20456;-68
2021/09/27 01:59:40;;;;;;;2.13;1.63;;;15.60;98.00;;;;;;5095183;28;20582;-68
2021/09/27 02:02:12;;;;;;;3.00;2.40;;;15.60;98.00;;;;;;5094935;28;20513;-69
2021/09/27 02:04:51;;;;;;;1.30;1.30;;;15.60;98.00;;;;;;5094871;28;20468;-67
2021/09/27 02:07:21;;;;;;;2.20;1.63;;;15.50;98.00;;;;;;5094641;28;20463;-68
2021/09/27 02:09:54;;;;;;;1.33;1.27;;;15.60;98.00;;;;;;5093098;28;20468;-68
2021/09/27 02:12:27;;;;;;;1.80;1.50;;;15.60;98.00;;;;;;5094623;28;20515;-69
2021/09/27 02:15:02;;;;;;;2.80;1.70;;;15.70;98.00;;;;;;5094268;28;20566;-68
2021/09/27 02:17:37;;;;;;;1.77;1.57;;;15.60;98.00;;;;;;5094391;28;20458;-68
2021/09/27 02:20:16;;;;;;;1.50;1.40;;;15.50;98.00;;;;;;5093747;28;20456;-68
2021/09/27 02:22:49;;;;;;;1.70;1.50;;;15.60;98.00;;;;;;5094355;28;20484;-67
2021/09/27 02:25:18;;;;;;;2.70;1.97;;;15.60;98.00;;;;;;5094232;28;20452;-69
2021/09/27 02:27:48;;;;;;;1.83;1.67;;;15.60;98.00;;;;;;5094153;28;20977;-67
2021/09/27 02:30:18;;;;;;;1.63;1.20;;;15.50;98.00;;;;;;5094036;28;20455;-68
2021/09/27 02:32:59;;;;;;;1.30;1.20;;;15.50;98.00;;;;;;5094164;28;20542;-67
2021/09/27 02:35:33;;;;;;;1.70;1.57;;;15.30;98.00;;;;;;5094049;28;20784;-68
2021/09/27 02:38:06;;;;;;;1.40;1.37;;;15.20;98.00;;;;;;5093835;28;20463;-67
2021/09/27 02:40:37;;;;;;;2.10;1.60;;;15.10;98.00;;;;;;5094005;28;20456;-67
2021/09/27 02:43:07;;;;;;;2.50;1.87;;;15.10;98.00;;;;;;5093921;28;20452;-67
2021/09/27 02:45:35;;;;;;;3.40;2.00;;;15.00;98.00;;;;;;5094006;28;20542;-68
2021/09/27 02:48:12;;;;;;;1.30;1.27;;;15.10;98.00;;;;;;5093780;28;20549;-68
2021/09/27 02:50:45;;;;;;;3.37;2.10;;;15.00;98.00;;;;;;5093545;28;20455;-68
2021/09/27 02:53:13;;;;;;;1.60;1.60;;;15.00;98.00;;;;;;5092053;28;20450;-68
2021/09/27 02:56:01;;;;;;;2.03;1.73;;;15.10;98.00;;;;;;5093398;28;20454;-68
2021/09/27 02:58:37;;;;;;;1.20;1.20;;;15.10;98.00;;;;;;5093701;28;20552;-68
2021/09/27 03:01:12;;;;;;;3.33;1.97;;;15.10;98.00;;;;;;5093711;28;20549;-68
2021/09/27 03:03:50;;;;;;;1.70;1.30;;;15.20;98.00;;;;;;5092581;28;20984;-69
2021/09/27 03:06:35;;;;;;;2.03;1.53;;;15.20;98.00;;;;;;5093588;28;20517;-68
2021/09/27 03:09:09;;;;;;;1.37;1.33;;;15.30;98.00;;;;;;5093499;28;20524;-69
2021/09/27 03:12:05;;;;;;;1.50;1.40;;;15.40;98.00;;;;;;5093588;28;20487;-69
2021/09/27 03:14:48;;;;;;;1.63;1.57;;;15.40;98.00;;;;;;5093497;28;20505;-68
2021/09/27 03:17:21;;;;;;;1.40;1.30;;;15.40;98.00;;;;;;5093431;28;20454;-69
2021/09/27 03:20:07;;;;;;;2.07;1.50;;;15.50;98.00;;;;;;5092192;28;20468;-68
2021/09/27 03:22:46;;;;;;;1.87;1.40;;;15.50;98.00;;;;;;5092184;28;21073;-68
2021/09/27 03:25:27;;;;;;;1.90;1.47;;;15.50;98.00;;;;;;5093564;28;20512;-68
2021/09/27 03:28:03;;;;;;;1.30;1.27;;;15.40;98.00;;;;;;5093530;28;20530;-68
2021/09/27 03:30:40;;;;;;;1.40;1.40;;;15.40;98.00;;;;;;5093067;28;20520;-68
2021/09/27 03:33:18;;;;;;;2.10;1.53;;;15.40;98.00;;;;;;5092927;28;20515;-69
2021/09/27 03:35:58;;;;;;;1.80;1.70;;;15.20;98.00;;;;;;5092946;28;20467;-68
2021/09/27 03:38:31;;;;;;;2.33;1.80;;;15.20;98.00;;;;;;5092817;28;20460;-69
2021/09/27 03:41:05;;;;;;;1.30;1.30;;;15.20;98.00;;;;;;5092695;28;20532;-68
2021/09/27 03:43:43;;;;;;;2.03;1.60;;;15.30;98.00;;;;;;5092780;28;20455;-68
2021/09/27 03:46:17;;;;;;;2.80;1.40;;;15.50;98.00;;;;;;5091500;28;20470;-69
2021/09/27 03:48:50;;;;;;;1.97;1.53;;;15.40;98.00;;;;;;5092472;28;20884;-68
2021/09/27 03:51:25;;;;;;;1.63;1.60;;;15.30;98.00;;;;;;5092539;28;20455;-69
2021/09/27 03:53:59;;;;;;;1.97;1.33;;;15.20;98.00;;;;;;5092678;28;20484;-70
2021/09/27 03:56:31;;;;;;;1.40;1.27;;;15.20;98.00;;;;;;5092646;28;20545;-70
2021/09/27 03:59:05;;;;;;;2.30;2.00;;;15.10;98.00;;;;;;5092444;28;20532;-69
2021/09/27 04:01:39;;;;;;;1.63;1.40;;;15.10;98.00;;;;;;5092636;28;20538;-68
2021/09/27 04:04:26;;;;;;;1.83;1.60;;;15.20;98.00;;;;;;5092370;28;20452;-70
2021/09/27 04:07:20;;;;;;;2.40;1.47;;;15.20;98.00;;;;;;5092369;28;20516;-67
2021/09/27 04:09:58;;;;;;;1.57;1.50;;;15.20;98.00;;;;;;5092110;28;20468;-69
2021/09/27 04:12:37;;;;;;;1.40;1.33;;;15.30;98.00;;;;;;5092272;28;20459;-68
2021/09/27 04:15:14;;;;;;;1.60;1.33;;;15.30;98.00;;;;;;5091975;28;20505;-69
2021/09/27 04:18:00;;;;;;;2.83;1.67;;;15.30;98.00;;;;;;5092202;28;20466;-69
2021/09/27 04:20:44;;;;;;;1.67;1.33;;;15.30;98.00;;;;;;5091797;28;20512;-68
2021/09/27 04:23:20;;;;;;;1.93;1.33;;;15.40;98.00;;;;;;5092220;28;20849;-68
2021/09/27 04:25:59;;;;;;;1.50;1.43;;;15.40;98.00;;;;;;5092309;28;20493;-69
2021/09/27 04:28:42;;;;;;;1.20;1.20;;;15.40;98.00;;;;;;5092141;28;20520;-69
2021/09/27 04:31:16;;;;;;;1.40;1.37;;;15.40;98.00;;;;;;5092173;28;20463;-69
2021/09/27 04:34:12;;;;;;;1.90;1.57;;;15.40;98.00;;;;;;5092023;28;20467;-69
2021/09/27 04:36:44;;;;;;;1.57;1.13;;;15.30;98.00;;;;;;5091139;28;20501;-70
2021/09/27 04:39:14;;;;;;;2.93;2.07;;;15.30;98.00;;;;;;5092002;28;20455;-69
2021/09/27 04:42:25;;;;;;;1.90;1.73;;;15.40;98.00;;;;;;5092086;28;20545;-69
2021/09/27 04:45:12;;;;;;;3.00;1.33;;;15.40;98.00;;;;;;5087228;28;20944;-69
2021/09/27 04:47:48;;;;;;;2.37;1.50;;;15.40;98.00;;;;;;5091983;28;20452;-68
2021/09/27 04:50:28;;;;;;;3.23;2.10;;;15.40;98.00;;;;;;5092035;28;20872;-69
2021/09/27 04:53:08;;;;;;;1.70;1.60;;;15.30;98.00;;;;;;5091858;28;20938;-68
2021/09/27 04:55:51;;;;;;;1.40;1.30;;;15.20;98.00;;;;;;5090404;28;20448;-68
2021/09/27 04:58:47;;;;;;;1.20;1.00;;;15.20;98.00;;;;;;5091876;28;20455;-69
2021/09/27 05:01:37;;;;;;;3.70;1.77;;;15.30;98.00;;;;;;5091092;28;20455;-69
2021/09/27 05:04:31;;;;;;;1.23;1.20;;;15.30;98.00;;;;;;5091475;28;20479;-69
2021/09/27 05:07:29;;;;;;;1.50;1.37;;;15.20;98.00;;;;;;5091332;28;20454;-69
2021/09/27 05:10:11;;;;;;;2.33;1.40;;;15.00;98.00;;;;;;5091563;28;20497;-68
2021/09/27 05:13:14;;;;;;;1.47;1.40;;;15.10;98.00;;;;;;5091632;28;20486;-70
2021/09/27 05:15:57;;;;;;;1.40;1.30;;;15.20;98.00;;;;;;5091601;28;20467;-70
2021/09/27 05:18:48;;;;;;;4.17;1.63;;;15.20;98.00;;;;;;5091359;28;20494;-68
2021/09/27 05:21:34;;;;;;;1.87;1.40;;;15.00;98.00;;;;;;5085237;28;20494;-68
2021/09/27 05:24:25;;;;;;;2.03;1.70;;;14.90;98.00;;;;;;5091460;28;20972;-70
2021/09/27 05:27:10;;;;;;;1.60;1.20;;;14.80;98.00;;;;;;5092721;28;20488;-70
2021/09/27 05:29:50;;;;;;;2.53;1.83;;;14.80;98.00;;;;;;5095295;28;20456;-69
2021/09/27 05:32:31;;;;;;;1.87;1.80;;;14.80;98.00;;;;;;5095349;28;20450;-69
2021/09/27 05:35:14;;;;;;;1.47;1.43;;;14.80;98.00;;;;;;5094907;28;20455;-70
2021/09/27 05:37:55;;;;;;;3.43;1.27;;;14.70;98.00;;;;;;5095295;28;20500;-69
2021/09/27 05:40:39;;;;;;;1.77;1.40;;;14.70;98.00;;;;;;5095328;28;20494;-69
2021/09/27 05:43:24;;;;;;;1.70;1.37;;;14.70;98.00;;;;;;5095078;28;20526;-68
2021/09/27 05:46:16;;;;;;;1.47;1.43;;;14.90;98.00;;;;;;5094938;28;20479;-70
2021/09/27 05:48:50;;;;;;;2.30;1.80;;;15.00;98.00;;;;;;5094907;28;21046;-68
2021/09/27 05:51:23;;;;;;;1.70;1.40;;;14.90;98.00;;;;;;5095055;28;20459;-69
2021/09/27 05:54:00;;;;;;;1.77;1.53;;;14.90;98.00;;;;;;5094988;28;20463;-68
2021/09/27 05:56:32;;;;;;;1.73;1.60;;;15.00;98.00;;;;;;5094950;28;20543;-68
2021/09/27 05:59:06;;;;;;;1.50;1.50;;;15.10;98.00;;;;;;5094973;28;20466;-69
2021/09/27 06:01:46;;;;;;;1.60;1.50;;;15.00;98.00;;;;;;5095011;28;20950;-69
2021/09/27 06:04:40;;;;;;;1.57;1.47;;;15.00;98.00;;;;;;5095074;28;20486;-69
2021/09/27 06:07:12;;;;;;;2.33;1.60;;;15.00;98.00;;;;;;5095200;28;20852;-68
2021/09/27 06:09:59;;;;;;;1.30;1.30;;;14.90;98.00;;;;;;5094665;28;20502;-68
2021/09/27 06:12:34;;;;;;;1.80;1.20;;;15.00;98.00;;;;;;5094869;28;20504;-69
2021/09/27 06:15:06;;;;;;;1.20;1.10;;;14.90;98.00;;;;;;5094578;28;20575;-70
2021/09/27 06:18:04;;;;;;;2.60;2.10;;;14.90;98.00;;;;;;5094405;28;20485;-69
2021/09/27 06:20:40;;;;;;;1.60;1.50;;;14.90;98.00;;;;;;5094533;28;21014;-69
2021/09/27 06:23:31;;;;;;;1.37;1.30;;;15.00;98.00;;;;;;5094203;28;20576;-69
2021/09/27 06:26:09;;;;;;;1.50;1.40;;;15.20;98.00;;;;;;5094223;28;20532;-69
2021/09/27 06:28:45;;;;;;;2.30;1.90;;;15.20;98.00;;;;;;5094149;28;20547;-67
2021/09/27 06:31:24;;;;;;;1.43;1.40;;;15.20;98.00;;;;;;5094150;28;20461;-69
2021/09/27 06:33:56;;;;;;;1.50;1.33;;;15.20;98.00;;;;;;5094144;28;20458;-70
2021/09/27 06:36:29;;;;;;;1.80;1.80;;;15.20;98.00;;;;;;5094179;28;20464;-69
2021/09/27 06:39:00;;;;;;;1.30;1.20;;;15.10;98.00;;;;;;5092566;28;20483;-71
2021/09/27 06:41:30;;;;;;;2.80;1.90;;;15.20;98.00;;;;;;5092875;28;20459;-70
2021/09/27 06:43:57;;;;;;;1.60;1.50;;;15.20;98.00;;;;;;5094005;28;20512;-69
2021/09/27 06:46:25;;;;;;;1.70;1.43;;;15.20;98.00;;;;;;5093884;28;20462;-69
2021/09/27 06:48:52;;;;;;;2.50;1.80;;;15.20;98.00;;;;;;5093741;28;20483;-69
2021/09/27 06:51:19;;;;;;;1.37;1.30;;;15.40;98.00;;;;;;5093352;28;20463;-69
2021/09/27 06:53:48;;;;;;;1.63;1.30;;;15.50;98.00;;;;;;5093652;28;20459;-70
2021/09/27 06:56:15;;;;;;;3.00;2.57;;;15.50;98.00;;;;;;5093504;28;20839;-70
2021/09/27 06:58:42;;;;;;;1.87;1.77;;;15.50;98.00;;;;;;5093766;28;20874;-70
2021/09/27 07:01:09;;;;;;;1.90;1.57;;;15.50;98.00;;;;;;5093675;28;20505;-70
2021/09/27 07:03:37;;;;;;;1.60;1.50;;;15.60;98.00;;;;;;5093603;28;20526;-70
2021/09/27 07:06:04;;;;;;;2.90;1.97;;;15.90;98.00;;;;;;5092642;28;20482;-70
2021/09/27 07:08:31;;;;;;;1.90;1.90;;;15.90;98.00;;;;;;5093565;28;20466;-69
2021/09/27 07:10:59;;;;;;;1.43;1.37;;;15.90;98.00;;;;;;5093501;28;20498;-68
2021/09/27 07:13:27;;;;;;;1.73;1.63;;;15.90;98.00;;;;;;5093712;28;20495;-68
2021/09/27 07:15:55;;;;;;;1.40;1.40;;;16.00;98.00;;;;;;5093290;28;20459;-68
2021/09/27 07:18:22;;;;;;;1.90;1.63;;;16.00;98.00;;;;;;5093422;28;20460;-68
2021/09/27 07:20:50;;;;;;;1.40;1.30;;;16.10;98.00;;;;;;5093392;28;20456;-69
2021/09/27 07:23:19;;;;;;;2.43;2.07;;;16.20;98.00;;;;;;5093286;28;21076;-70
2021/09/27 07:25:47;;;;;;;4.60;1.77;;;16.40;98.00;;;;;;5093245;28;20459;-69
2021/09/27 07:28:22;;;;;;;1.50;1.47;;;16.20;98.00;;;;;;5093442;28;20463;-69
2021/09/27 07:30:50;;;;;;;2.23;2.00;;;16.40;98.00;;;;;;5093323;28;20933;-69
2021/09/27 07:33:18;;;;;;;2.47;1.77;;;16.30;98.00;;;;;;5092139;28;20462;-70
2021/09/27 07:35:46;;;;;;;2.13;1.70;;;16.40;98.00;;;;;;5100422;28;20997;-70
2021/09/27 07:38:13;;;;;;;2.30;2.00;;;16.50;98.00;;;;;;5111242;28;20850;-69
2021/09/27 07:40:41;;;;;;;2.33;1.97;;;16.50;98.00;;;;;;5091616;28;20542;-69
2021/09/27 07:43:09;;;;;;;3.03;1.70;;;16.70;98.00;;;;;;5098057;28;20888;-70
2021/09/27 07:45:38;;;;;;;1.57;1.57;;;16.80;98.00;;;;;;5093640;28;20551;-69
2021/09/27 07:48:07;;;;;;;1.80;1.67;;;16.80;98.00;;;;;;5100448;28;20459;-69
2021/09/27 07:50:34;;;;;;;2.57;2.07;;;16.90;98.00;;;;;;5090761;28;20484;-72
2021/09/27 07:53:01;;;;;;;3.00;2.47;;;16.90;98.00;;;;;;5072987;28;20509;-69
2021/09/27 07:55:29;;;;;;;2.43;2.23;;;17.00;98.00;;;;;;5105182;28;20450;-69
2021/09/27 07:57:57;;;;;;;2.60;1.93;;;17.10;98.00;;;;;;5102794;28;20854;-68
2021/09/27 08:00:24;;;;;;;2.93;2.27;;;17.20;98.00;;;;;;5097566;28;20487;-70
2021/09/27 08:02:52;;;;;;;1.40;1.40;;;17.30;98.00;;;;;;5099559;28;20526;-69
2021/09/27 08:05:22;;;;;;;2.90;1.97;;;17.30;98.00;;;;;;5108186;28;20455;-71
2021/09/27 08:07:48;;;;;;;2.73;2.13;;;17.50;98.00;;;;;;5093090;28;20521;-69
2021/09/27 08:10:17;;;;;;;2.40;2.20;;;17.70;98.00;;;;;;5097520;28;20512;-68
2021/09/27 08:12:45;;;;;;;1.53;1.47;;;17.90;98.00;;;;;;5101706;28;20521;-69
2021/09/27 08:15:16;;;;;;;2.87;2.27;;;18.10;98.00;;;;;;5086410;28;20547;-68
2021/09/27 08:17:44;;;;;;;2.07;1.97;;;18.00;98.00;;;;;;5108663;28;20463;-70
2021/09/27 08:20:14;;;;;;;2.57;2.13;;;18.10;98.00;;;;;;5099015;28;20457;-70
2021/09/27 08:22:41;;;;;;;2.60;2.03;;;18.10;98.00;;;;;;5086963;28;20893;-69
2021/09/27 08:25:09;;;;;;;2.23;1.50;;;18.20;98.00;;;;;;5077171;28;21009;-69
2021/09/27 08:27:38;;;;;;;3.10;1.97;;;18.40;98.00;;;;;;5089933;28;20524;-70
2021/09/27 08:30:07;;;;;;;2.43;2.13;;;18.50;98.00;;;;;;5091305;28;20534;-71
2021/09/27 08:32:38;;;;;;;2.27;1.87;;;18.50;98.00;;;;;;5106970;28;20459;-71
2021/09/27 08:35:06;;;;;;;2.00;1.90;;;18.60;98.00;;;;;;5100773;28;20926;-69
2021/09/27 08:37:38;;;;;;;2.00;1.50;;;18.80;98.00;;;;;;5096654;28;20997;-70
2021/09/27 08:40:06;;;;;;;2.13;1.97;;;18.90;98.00;;;;;;5103282;28;20956;-71
2021/09/27 08:42:39;;;;;;;1.87;1.40;;;19.10;98.00;;;;;;5099504;28;20565;-72
2021/09/27 08:45:11;;;;;;;1.53;1.40;;;19.20;98.00;;;;;;5089860;28;20505;-72
2021/09/27 08:47:51;;;;;;;2.27;2.07;;;19.30;98.00;;;;;;5102233;28;20455;-70
2021/09/27 08:50:33;;;;;;;2.50;2.00;;;19.40;98.00;;;;;;5101675;28;20451;-70
2021/09/27 08:53:03;;;;;;;1.97;1.60;;;19.50;98.00;;;;;;5106211;28;20891;-69
2021/09/27 08:55:31;;;;;;;2.20;1.63;;;19.50;98.00;;;;;;5098806;28;20468;-70
2021/09/27 08:58:10;;;;;;;3.13;2.23;;;19.70;98.00;;;;;;5093231;28;20459;-70
2021/09/27 09:00:40;;;;;;;1.80;1.60;;;19.80;98.00;;;;;;5087175;28;20460;-69
2021/09/27 09:03:17;;;;;;;2.20;1.90;;;20.00;98.00;;;;;;5095001;28;20476;-69
2021/09/27 09:05:49;;;;;;;2.50;1.83;;;20.10;98.00;;;;;;5103971;28;20463;-71
2021/09/27 09:08:25;;;;;;;1.87;1.70;;;20.30;98.00;;;;;;5103279;28;20464;-69
2021/09/27 09:10:56;;;;;;;3.00;2.20;;;20.30;98.00;;;;;;5103574;28;20452;-71
2021/09/27 09:13:29;;;;;;;2.33;2.00;;;20.50;98.00;;;;;;5110329;28;20841;-72
2021/09/27 09:16:01;;;;;;;2.00;1.87;;;20.60;98.00;;;;;;5103319;28;20480;-72
2021/09/27 09:18:32;;;;;;;1.63;1.40;;;20.80;98.00;;;;;;5113809;28;20835;-71
2021/09/27 09:21:04;;;;;;;5.33;1.90;;;20.90;98.00;;;;;;5115381;28;20490;-70
2021/09/27 09:23:35;;;;;;;1.63;1.53;;;21.10;98.00;;;;;;5115501;28;20490;-70
2021/09/27 09:26:05;;;;;;;2.67;1.90;;;21.40;98.00;;;;;;5115241;28;20468;-71
2021/09/27 09:28:32;;;;;;;2.50;1.77;;;21.40;98.00;;;;;;5115998;28;20451;-69
2021/09/27 09:31:07;;;;;;;1.60;1.50;;;21.60;98.00;;;;;;5115808;28;20968;-69
2021/09/27 09:33:45;;;;;;;2.30;1.87;;;21.90;98.00;;;;;;5115910;28;20532;-70
2021/09/27 09:36:15;;;;;;;1.97;1.80;;;22.20;98.00;;;;;;5115657;28;21013;-70
2021/09/27 09:38:45;;;;;;;2.60;1.70;;;22.20;98.00;;;;;;5115688;28;20808;-71
2021/09/27 09:41:15;;;;;;;1.67;1.57;;;22.30;98.00;;;;;;5115734;28;20455;-70
2021/09/27 09:43:45;;;;;;;2.17;1.67;;;22.50;98.00;;;;;;5115695;28;20486;-70
2021/09/27 09:46:16;;;;;;;2.70;2.13;;;22.50;98.00;;;;;;5115557;28;20477;-71
2021/09/27 09:49:02;;;;;;;1.90;1.60;;;22.30;98.00;;;;;;5115583;28;20452;-72
2021/09/27 09:51:35;;;;;;;1.80;1.47;;;22.10;98.00;;;;;;5115274;28;20450;-71
2021/09/27 09:54:12;;;;;;;2.07;1.63;;;22.20;98.00;;;;;;5115458;28;20493;-73
2021/09/27 09:56:45;;;;;;;1.97;1.53;;;22.50;98.00;;;;;;5115556;28;20455;-71
2021/09/27 09:59:25;;;;;;;2.40;1.90;;;22.70;98.00;;;;;;5115382;28;20523;-70
2021/09/27 10:01:55;;;;;;;2.13;1.67;;;22.80;98.00;;;;;;5115534;28;20458;-70
2021/09/27 10:04:25;;;;;;;2.37;1.60;;;22.90;98.00;;;;;;5115254;28;20504;-70
2021/09/27 10:06:59;;;;;;;2.20;1.50;;;22.70;98.00;;;;;;5115595;28;20493;-71
2021/09/27 10:09:31;;;;;;;1.80;1.47;;;22.40;98.00;;;;;;5115224;28;20459;-70
2021/09/27 10:12:00;;;;;;;1.43;1.33;;;22.10;98.00;;;;;;5114887;28;20503;-71
2021/09/27 10:14:36;;;;;;;2.03;1.80;;;22.40;98.00;;;;;;5115111;28;20478;-71
2021/09/27 10:17:26;;;;;;;2.60;1.90;;;22.80;98.00;;;;;;5115043;28;20957;-71
2021/09/27 10:19:58;;;;;;;1.77;1.60;;;23.20;98.00;;;;;;5105362;28;21145;-69
2021/09/27 10:22:29;;;;;;;2.30;1.90;;;23.50;98.00;;;;;;5115094;28;20459;-70
2021/09/27 10:24:59;;;;;;;2.10;1.53;;;23.80;98.00;;;;;;5114491;28;20489;-70
2021/09/27 10:27:31;;;;;;;2.33;1.73;;;23.70;98.00;;;;;;5114323;28;20439;-71
2021/09/27 10:30:00;;;;;;;2.00;1.57;;;24.00;98.00;;;;;;5114469;28;20547;-70
2021/09/27 10:32:38;;;;;;;3.00;1.87;;;24.10;96.00;;;;;;5114761;28;20494;-71
2021/09/27 10:35:20;;;;;;;1.90;1.50;;;23.80;97.90;;;;;;5114439;28;20567;-70
2021/09/27 10:37:48;;;;;;;2.10;1.73;;;23.60;98.00;;;;;;5114670;28;20504;-70
2021/09/27 10:40:19;;;;;;;2.57;1.70;;;23.60;98.00;;;;;;5114460;28;21101;-71
2021/09/27 10:42:48;;;;;;;2.17;1.60;;;23.50;98.00;;;;;;5114576;28;20504;-72
2021/09/27 10:45:18;;;;;;;1.77;1.70;;;23.60;98.00;;;;;;5115505;28;20478;-72
2021/09/27 10:47:48;;;;;;;1.83;1.40;;;23.40;98.00;;;;;;5116403;28;20515;-70
2021/09/27 10:50:21;;;;;;;2.53;1.90;;;23.30;97.30;;;;;;5115854;28;20471;-72
2021/09/27 10:53:01;;;;;;;2.20;1.60;;;23.40;98.00;;;;;;5114237;28;20486;-72
2021/09/27 10:55:46;;;;;;;2.40;1.90;;;23.60;98.00;;;;;;5114083;28;20488;-71
2021/09/27 10:58:31;;;;;;;1.50;1.40;;;23.90;97.30;;;;;;5114105;28;20507;-70
2021/09/27 11:00:59;;;;;;;3.30;1.87;;;24.40;98.00;;;;;;5112822;28;20455;-73
2021/09/27 11:03:32;;;;;;;2.00;1.80;;;24.80;96.10;;;;;;5114060;28;20486;-71
2021/09/27 11:06:02;;;;;;;2.50;2.30;;;25.00;93.20;;;;;;5113868;28;20517;-71
2021/09/27 11:08:51;;;;;;;2.77;2.17;;;25.20;92.40;;;;;;5114081;28;20492;-71
2021/09/27 11:11:36;;;;;;;2.03;1.60;;;25.40;92.10;;;;;;5113753;28;20829;-70
2021/09/27 11:14:21;;;;;;;2.80;1.97;;;25.40;89.50;;;;;;5114023;28;20831;-72
2021/09/27 11:16:56;;;;;;;2.47;1.77;;;25.40;89.70;;;;;;5112795;28;20478;-72
2021/09/27 11:19:35;;;;;;;1.67;1.43;;;25.60;89.00;;;;;;5113715;28;20486;-72
2021/09/27 11:22:37;;;;;;;1.40;1.30;;;25.70;91.40;;;;;;5113820;28;20462;-71
2021/09/27 11:25:34;;;;;;;1.90;1.80;;;26.00;88.20;;;;;;5111693;28;20479;-70
2021/09/27 11:28:29;;;;;;;1.70;1.70;;;26.10;90.40;;;;;;5114018;28;20534;-75
2021/09/27 11:31:18;;;;;;;1.97;1.60;;;26.00;89.90;;;;;;5113654;28;20925;-70
2021/09/27 11:33:50;;;;;;;2.00;1.80;;;26.00;88.50;;;;;;5113902;28;20539;-70
2021/09/27 11:36:35;;;;;;;2.03;1.70;;;26.30;87.00;;;;;;5113447;28;20455;-73
2021/09/27 11:39:25;;;;;;;2.63;1.83;;;26.60;89.60;;;;;;5112249;28;20570;-73
2021/09/27 11:42:30;;;;;;;2.43;1.70;;;26.70;88.20;;;;;;5112444;28;20948;-72
2021/09/27 11:45:23;;;;;;;1.83;1.60;;;27.00;85.20;;;;;;5050271;28;20555;-71
2021/09/27 11:47:59;;;;;;;2.23;1.80;;;27.00;86.50;;;;;;5112086;28;20462;-73
2021/09/27 11:51:07;;;;;;;2.47;1.80;;;26.90;85.80;;;;;;5113256;28;20542;-72
2021/09/27 11:53:46;;;;;;;2.93;1.50;;;26.80;85.70;;;;;;5113430;28;20500;-74
2021/09/27 11:56:19;;;;;;;2.27;1.87;;;26.70;83.80;;;;;;5113076;28;20537;-73
2021/09/27 11:58:52;;;;;;;1.40;1.30;;;26.30;84.10;;;;;;5113240;28;20466;-73
2021/09/27 12:01:33;;;;;;;1.43;1.33;;;26.10;85.90;;;;;;5113071;28;20444;-72
2021/09/27 12:04:10;;;;;;;2.33;1.53;;;26.10;85.80;;;;;;5112818;28;21069;-73
2021/09/27 12:06:44;;;;;;;1.93;1.70;;;26.00;86.10;;;;;;5113947;28;21011;-72
2021/09/27 12:09:16;;;;;;;2.07;1.60;;;25.80;84.80;;;;;;5114110;28;20467;-72
2021/09/27 12:11:52;;;;;;;1.50;1.27;;;25.60;86.90;;;;;;5113987;28;20532;-71
2021/09/27 12:14:21;;;;;;;1.33;1.23;;;25.50;85.80;;;;;;5113834;28;20455;-72
2021/09/27 12:16:53;;;;;;;2.13;1.50;;;25.40;86.30;;;;;;5114281;28;20526;-73
2021/09/27 12:19:23;;;;;;;1.70;1.60;;;25.20;89.90;;;;;;5113686;28;20479;-72
2021/09/27 12:21:53;;;;;;;1.43;1.37;;;25.20;87.50;;;;;;5113206;28;20594;-70
2021/09/27 12:24:23;;;;;;;2.43;1.67;;;25.20;87.80;;;;;;5113279;28;20483;-71
2021/09/27 12:26:54;;;;;;;1.50;1.40;;;25.10;87.00;;;;;;5113411;28;20451;-70
2021/09/27 12:29:25;;;;;;;2.60;1.73;;;24.90;88.40;;;;;;5113744;28;20463;-72
2021/09/27 12:31:56;;;;;;;1.40;1.30;;;24.80;88.70;;;;;;5113567;28;20583;-71
2021/09/27 12:34:26;;;;;;;3.73;1.60;;;24.70;90.40;;;;;;5113745;28;20450;-73
2021/09/27 12:36:57;;;;;;;1.87;1.50;;;24.70;91.40;;;;;;5113335;28;21093;-71
2021/09/27 12:39:25;;;;;;;1.30;1.30;;;24.60;91.60;;;;;;5113096;28;20487;-72
2021/09/27 12:41:54;;;;;;;2.20;2.00;;;24.70;93.50;;;;;;5112868;28;20459;-71
2021/09/27 12:44:26;;;;;;;1.60;1.57;;;24.80;91.30;;;;;;5113593;28;20566;-71
2021/09/27 12:47:00;;;;;;;1.60;1.33;;;24.90;90.80;;;;;;5114075;28;20478;-71
2021/09/27 12:49:34;;;;;;;2.50;1.70;;;24.90;89.40;;;;;;5113032;28;20455;-70
2021/09/27 12:52:04;;;;;;;2.50;1.87;;;24.90;89.60;;;;;;5111237;28;20523;-71
2021/09/27 12:54:35;;;;;;;2.40;1.80;;;25.10;89.70;;;;;;5112194;28;20443;-70
2021/09/27 12:57:08;;;;;;;2.50;1.70;;;25.10;88.90;;;;;;5112620;28;20836;-71
2021/09/27 12:59:36;;;;;;;2.40;1.80;;;25.00;89.20;;;;;;5111992;28;20459;-71
2021/09/27 13:02:07;;;;;;;2.03;1.50;;;24.80;90.20;;;;;;5112038;28;20500;-73
2021/09/27 13:04:46;;;;;;;1.90;1.60;;;24.60;89.70;;;;;;5111779;28;20521;-71
2021/09/27 13:07:16;;;;;;;1.87;1.60;;;24.50;90.60;;;;;;5111881;28;20465;-71
2021/09/27 13:10:09;;;;;;;1.73;1.57;;;24.30;90.50;;;;;;5111559;28;20478;-71
2021/09/27 13:12:38;;;;;;;1.60;1.43;;;24.40;92.30;;;;;;5112021;28;20459;-71
2021/09/27 13:15:13;;;;;;;1.67;1.60;;;24.40;92.70;;;;;;5111814;28;20527;-72
2021/09/27 13:18:01;;;;;;;2.10;1.57;;;24.40;92.40;;;;;;5111753;28;20458;-72
2021/09/27 13:20:33;;;;;;;1.97;1.60;;;24.30;94.00;;;;;;5111755;28;20498;-71
2021/09/27 13:23:00;;;;;;;1.90;1.70;;;24.50;93.30;;;;;;5111944;28;21155;-71
2021/09/27 13:25:31;;;;;;;1.50;1.40;;;24.50;93.20;;;;;;5111539;28;20518;-72
2021/09/27 13:28:03;;;;;;;1.87;1.60;;;24.50;92.80;;;;;;5111805;28;20455;-72
2021/09/27 13:30:33;;;;;;;1.50;1.43;;;24.50;94.00;;;;;;5111702;28;20549;-72